Hillsdale, Michigan
Current Conditions -  °F | °C
As of 10:14 PM on Friday 19 Dec 2014 (Local Time) from KJYM Reporting Station
Clear Clear  
Wind Chill: 23°   Ceiling: Unl
Heat Index: 23°   Visibility: 7mi
Dew Point: 20°   Wind: 0mph
Humidity: 91%   Direction: NA
Pressure: 30.24"   Gusts: NA
Location:  41.92°N, 84.63°W
Report Text: KJYM 200314Z AUTO 00000KT 7SM CLR M05/M06 A3024 RMK AO2 T10521064
Loading
Personal Weather Stations






























Interactive Weather Map New forecast layout! Learn more

10-Day Weather Forecast

Advertisements
Track Severe Weather on mobile